Moraine, Ohio
Current Conditions -  °F | °C
As of 11:25 AM on Tuesday 21 Oct 2014 (Local Time) from KMGY Reporting Station
Overcast Overcast  
Wind Chill: 52°   Ceiling: 3200
Heat Index: 52°   Visibility: 10mi
Dew Point: 43°   Wind: 10mph
Humidity: 71%   Direction: 340°NNW
Pressure: 30.02"   Gusts: NA
Location:  39.6994°N, 84.2173°W
Report Text: KMGY 211525Z AUTO 34009KT 10SM SCT022 BKN032 OVC040 11/06 A3002 RMK AO2 T01110061
Loading
Personal Weather Stations






























Interactive Weather Map
Tropical Storm Tracking
New forecast layout! Learn more

10-Day Weather Forecast

Advertisements
Track Severe Weather on mobile